sensor_id;sensor_type;location;lat;lon;timestamp;temperature;humidity
7117;DHT22;3600;48.568;7.870;2024-02-15T00:02:23;10.30;99.90
7117;DHT22;3600;48.568;7.870;2024-02-15T00:04:50;10.30;99.90
7117;DHT22;3600;48.568;7.870;2024-02-15T00:07:18;10.30;99.90
7117;DHT22;3600;48.568;7.870;2024-02-15T00:09:49;10.20;99.90
7117;DHT22;3600;48.568;7.870;2024-02-15T00:12:16;10.10;99.90
7117;DHT22;3600;48.568;7.870;2024-02-15T00:14:43;10.10;99.90
7117;DHT22;3600;48.568;7.870;2024-02-15T00:17:11;10.00;99.90
7117;DHT22;3600;48.568;7.870;2024-02-15T00:19:38;10.00;99.90
7117;DHT22;3600;48.568;7.870;2024-02-15T00:22:09;10.00;99.90
7117;DHT22;3600;48.568;7.870;2024-02-15T00:24:39;10.00;99.90
7117;DHT22;3600;48.568;7.870;2024-02-15T00:27:09;10.00;99.90
7117;DHT22;3600;48.568;7.870;2024-02-15T00:29:38;9.90;99.90
7117;DHT22;3600;48.568;7.870;2024-02-15T00:32:07;9.90;99.90
7117;DHT22;3600;48.568;7.870;2024-02-15T00:34:35;9.90;99.90
7117;DHT22;3600;48.568;7.870;2024-02-15T00:37:02;9.90;99.90
7117;DHT22;3600;48.568;7.870;2024-02-15T00:39:29;9.90;99.90
7117;DHT22;3600;48.568;7.870;2024-02-15T00:41:59;9.90;99.90
7117;DHT22;3600;48.568;7.870;2024-02-15T00:44:29;9.80;99.90
7117;DHT22;3600;48.568;7.870;2024-02-15T00:46:56;9.80;99.90
7117;DHT22;3600;48.568;7.870;2024-02-15T00:49:23;9.80;99.90
7117;DHT22;3600;48.568;7.870;2024-02-15T00:51:53;9.80;99.90
7117;DHT22;3600;48.568;7.870;2024-02-15T00:54:22;9.80;99.90
7117;DHT22;3600;48.568;7.870;2024-02-15T00:56:49;9.70;99.90
7117;DHT22;3600;48.568;7.870;2024-02-15T00:59:17;9.60;99.90
7117;DHT22;3600;48.568;7.870;2024-02-15T01:01:46;9.50;99.90
7117;DHT22;3600;48.568;7.870;2024-02-15T01:04:15;9.40;99.90
7117;DHT22;3600;48.568;7.870;2024-02-15T01:06:42;9.40;99.90
7117;DHT22;3600;48.568;7.870;2024-02-15T01:09:09;9.40;99.90
7117;DHT22;3600;48.568;7.870;2024-02-15T01:11:36;9.40;99.90
7117;DHT22;3600;48.568;7.870;2024-02-15T01:14:04;9.30;99.90
7117;DHT22;3600;48.568;7.870;2024-02-15T01:16:33;9.30;99.90
7117;DHT22;3600;48.568;7.870;2024-02-15T01:19:02;9.20;99.90
7117;DHT22;3600;48.568;7.870;2024-02-15T01:21:30;9.20;99.90
7117;DHT22;3600;48.568;7.870;2024-02-15T01:23:59;9.20;99.90
7117;DHT22;3600;48.568;7.870;2024-02-15T01:26:27;9.30;99.90
7117;DHT22;3600;48.568;7.870;2024-02-15T01:28:54;9.20;99.90
7117;DHT22;3600;48.568;7.870;2024-02-15T01:31:22;9.30;99.90
7117;DHT22;3600;48.568;7.870;2024-02-15T01:33:49;9.20;99.90
7117;DHT22;3600;48.568;7.870;2024-02-15T01:36:19;9.20;99.90
7117;DHT22;3600;48.568;7.870;2024-02-15T01:38:48;9.20;99.90
7117;DHT22;3600;48.568;7.870;2024-02-15T01:41:15;9.20;99.90
7117;DHT22;3600;48.568;7.870;2024-02-15T01:43:45;9.10;99.90
7117;DHT22;3600;48.568;7.870;2024-02-15T01:46:13;9.10;99.90
7117;DHT22;3600;48.568;7.870;2024-02-15T01:48:42;9.10;99.90
7117;DHT22;3600;48.568;7.870;2024-02-15T01:51:10;9.10;99.90
7117;DHT22;3600;48.568;7.870;2024-02-15T01:53:38;9.10;99.90
7117;DHT22;3600;48.568;7.870;2024-02-15T01:56:07;9.20;99.90
7117;DHT22;3600;48.568;7.870;2024-02-15T01:58:34;9.20;99.90
7117;DHT22;3600;48.568;7.870;2024-02-15T02:01:03;9.10;99.90
7117;DHT22;3600;48.568;7.870;2024-02-15T02:03:31;9.00;99.90
7117;DHT22;3600;48.568;7.870;2024-02-15T02:05:58;9.00;99.90
7117;DHT22;3600;48.568;7.870;2024-02-15T02:08:26;8.90;99.90
7117;DHT22;3600;48.568;7.870;2024-02-15T02:10:53;8.90;99.90
7117;DHT22;3600;48.568;7.870;2024-02-15T02:13:21;8.90;99.90
7117;DHT22;3600;48.568;7.870;2024-02-15T02:15:50;8.90;99.90
7117;DHT22;3600;48.568;7.870;2024-02-15T02:18:18;8.80;99.90
7117;DHT22;3600;48.568;7.870;2024-02-15T02:20:45;8.80;99.90
7117;DHT22;3600;48.568;7.870;2024-02-15T02:23:16;8.80;99.90
7117;DHT22;3600;48.568;7.870;2024-02-15T02:25:45;8.90;99.90
7117;DHT22;3600;48.568;7.870;2024-02-15T02:28:16;8.80;99.90
7117;DHT22;3600;48.568;7.870;2024-02-15T02:30:43;8.90;99.90
7117;DHT22;3600;48.568;7.870;2024-02-15T02:33:12;8.90;99.90
7117;DHT22;3600;48.568;7.870;2024-02-15T02:35:47;8.80;99.90
7117;DHT22;3600;48.568;7.870;2024-02-15T02:38:15;8.80;99.90
7117;DHT22;3600;48.568;7.870;2024-02-15T02:40:42;8.80;99.90
7117;DHT22;3600;48.568;7.870;2024-02-15T02:43:09;8.80;99.90
7117;DHT22;3600;48.568;7.870;2024-02-15T02:45:37;8.80;99.90
7117;DHT22;3600;48.568;7.870;2024-02-15T02:48:04;8.80;99.90
7117;DHT22;3600;48.568;7.870;2024-02-15T02:50:32;8.70;99.90
7117;DHT22;3600;48.568;7.870;2024-02-15T02:52:59;8.80;99.90
7117;DHT22;3600;48.568;7.870;2024-02-15T02:55:26;8.80;99.90
7117;DHT22;3600;48.568;7.870;2024-02-15T02:57:57;8.80;99.90
7117;DHT22;3600;48.568;7.870;2024-02-15T03:00:26;8.70;99.90
7117;DHT22;3600;48.568;7.870;2024-02-15T03:02:54;8.70;99.90
7117;DHT22;3600;48.568;7.870;2024-02-15T03:05:26;8.70;99.90
7117;DHT22;3600;48.568;7.870;2024-02-15T03:07:53;8.70;99.90
7117;DHT22;3600;48.568;7.870;2024-02-15T03:10:42;8.70;99.90
7117;DHT22;3600;48.568;7.870;2024-02-15T03:13:10;8.70;99.90
7117;DHT22;3600;48.568;7.870;2024-02-15T03:15:40;8.70;99.90
7117;DHT22;3600;48.568;7.870;2024-02-15T03:18:08;8.70;99.90
7117;DHT22;3600;48.568;7.870;2024-02-15T03:20:37;8.70;99.90
7117;DHT22;3600;48.568;7.870;2024-02-15T03:23:05;8.70;99.90
7117;DHT22;3600;48.568;7.870;2024-02-15T03:25:31;8.70;99.90
7117;DHT22;3600;48.568;7.870;2024-02-15T03:28:01;8.70;99.90
7117;DHT22;3600;48.568;7.870;2024-02-15T03:30:32;8.70;99.90
7117;DHT22;3600;48.568;7.870;2024-02-15T03:33:04;8.70;99.90
7117;DHT22;3600;48.568;7.870;2024-02-15T03:35:34;8.70;99.90
7117;DHT22;3600;48.568;7.870;2024-02-15T03:38:01;8.70;99.90
7117;DHT22;3600;48.568;7.870;2024-02-15T03:40:28;8.60;99.90
7117;DHT22;3600;48.568;7.870;2024-02-15T03:42:57;8.60;99.90
7117;DHT22;3600;48.568;7.870;2024-02-15T03:45:26;8.60;99.90
7117;DHT22;3600;48.568;7.870;2024-02-15T03:47:54;8.60;99.90
7117;DHT22;3600;48.568;7.870;2024-02-15T03:50:25;8.60;99.90
7117;DHT22;3600;48.568;7.870;2024-02-15T03:52:52;8.60;99.90
7117;DHT22;3600;48.568;7.870;2024-02-15T03:55:19;8.60;99.90
7117;DHT22;3600;48.568;7.870;2024-02-15T03:57:49;8.60;99.90
7117;DHT22;3600;48.568;7.870;2024-02-15T04:00:16;8.60;99.90
7117;DHT22;3600;48.568;7.870;2024-02-15T04:02:49;8.60;99.90
7117;DHT22;3600;48.568;7.870;2024-02-15T04:05:17;8.70;99.90
7117;DHT22;3600;48.568;7.870;2024-02-15T04:07:49;8.60;99.90
7117;DHT22;3600;48.568;7.870;2024-02-15T04:10:16;8.70;99.90
7117;DHT22;3600;48.568;7.870;2024-02-15T04:12:45;8.70;99.90
7117;DHT22;3600;48.568;7.870;2024-02-15T04:15:13;8.70;99.90
7117;DHT22;3600;48.568;7.870;2024-02-15T04:17:43;8.60;99.90
7117;DHT22;3600;48.568;7.870;2024-02-15T04:20:12;8.70;99.90
7117;DHT22;3600;48.568;7.870;2024-02-15T04:22:43;8.60;99.90
7117;DHT22;3600;48.568;7.870;2024-02-15T04:25:11;8.70;99.90
7117;DHT22;3600;48.568;7.870;2024-02-15T04:27:47;8.70;99.90
7117;DHT22;3600;48.568;7.870;2024-02-15T04:30:16;8.70;99.90
7117;DHT22;3600;48.568;7.870;2024-02-15T04:32:46;8.70;99.90
7117;DHT22;3600;48.568;7.870;2024-02-15T04:35:14;8.60;99.90
7117;DHT22;3600;48.568;7.870;2024-02-15T04:37:54;8.60;99.90
7117;DHT22;3600;48.568;7.870;2024-02-15T04:40:20;8.60;99.90
7117;DHT22;3600;48.568;7.870;2024-02-15T04:42:47;8.60;99.90
7117;DHT22;3600;48.568;7.870;2024-02-15T04:45:15;8.70;99.90
7117;DHT22;3600;48.568;7.870;2024-02-15T04:47:43;8.70;99.90
7117;DHT22;3600;48.568;7.870;2024-02-15T04:50:13;8.70;99.90
7117;DHT22;3600;48.568;7.870;2024-02-15T04:52:40;8.70;99.90
7117;DHT22;3600;48.568;7.870;2024-02-15T04:55:10;8.70;99.90
7117;DHT22;3600;48.568;7.870;2024-02-15T04:57:37;8.60;99.90
7117;DHT22;3600;48.568;7.870;2024-02-15T05:00:04;8.70;99.90
7117;DHT22;3600;48.568;7.870;2024-02-15T05:02:37;8.70;99.90
7117;DHT22;3600;48.568;7.870;2024-02-15T05:05:11;8.60;99.90
7117;DHT22;3600;48.568;7.870;2024-02-15T05:07:41;8.50;99.90
7117;DHT22;3600;48.568;7.870;2024-02-15T05:10:10;8.40;99.90
7117;DHT22;3600;48.568;7.870;2024-02-15T05:12:37;8.30;99.90
7117;DHT22;3600;48.568;7.870;2024-02-15T05:15:07;8.30;99.90
7117;DHT22;3600;48.568;7.870;2024-02-15T05:17:40;8.30;99.90
7117;DHT22;3600;48.568;7.870;2024-02-15T05:20:10;8.30;99.90
7117;DHT22;3600;48.568;7.870;2024-02-15T05:22:40;8.20;99.90
7117;DHT22;3600;48.568;7.870;2024-02-15T05:25:15;8.20;99.90
7117;DHT22;3600;48.568;7.870;2024-02-15T05:27:42;8.20;99.90
7117;DHT22;3600;48.568;7.870;2024-02-15T05:30:11;8.20;99.90
7117;DHT22;3600;48.568;7.870;2024-02-15T05:32:39;8.20;99.90
7117;DHT22;3600;48.568;7.870;2024-02-15T05:35:10;8.20;99.90
7117;DHT22;3600;48.568;7.870;2024-02-15T05:37:38;8.20;99.90
7117;DHT22;3600;48.568;7.870;2024-02-15T05:40:06;8.20;99.90
7117;DHT22;3600;48.568;7.870;2024-02-15T05:42:33;8.10;99.90
7117;DHT22;3600;48.568;7.870;2024-02-15T05:48:00;8.10;99.90
7117;DHT22;3600;48.568;7.870;2024-02-15T05:50:27;8.10;99.90
7117;DHT22;3600;48.568;7.870;2024-02-15T05:52:56;8.00;99.90
7117;DHT22;3600;48.568;7.870;2024-02-15T05:55:25;8.10;99.90
7117;DHT22;3600;48.568;7.870;2024-02-15T05:58:16;8.00;99.90
7117;DHT22;3600;48.568;7.870;2024-02-15T06:00:47;8.00;99.90
7117;DHT22;3600;48.568;7.870;2024-02-15T06:03:34;8.00;99.90
7117;DHT22;3600;48.568;7.870;2024-02-15T06:06:21;8.00;99.90
7117;DHT22;3600;48.568;7.870;2024-02-15T06:08:48;8.10;99.90
7117;DHT22;3600;48.568;7.870;2024-02-15T06:11:55;8.00;99.90
7117;DHT22;3600;48.568;7.870;2024-02-15T06:14:50;8.00;99.90
7117;DHT22;3600;48.568;7.870;2024-02-15T06:17:19;8.00;99.90
7117;DHT22;3600;48.568;7.870;2024-02-15T06:19:46;8.00;99.90
7117;DHT22;3600;48.568;7.870;2024-02-15T06:22:13;8.10;99.90
7117;DHT22;3600;48.568;7.870;2024-02-15T06:24:41;8.10;99.90
7117;DHT22;3600;48.568;7.870;2024-02-15T06:27:10;8.10;99.90
7117;DHT22;3600;48.568;7.870;2024-02-15T06:29:38;8.10;99.90
7117;DHT22;3600;48.568;7.870;2024-02-15T06:32:23;8.10;99.90
7117;DHT22;3600;48.568;7.870;2024-02-15T06:35:09;8.10;99.90
7117;DHT22;3600;48.568;7.870;2024-02-15T06:37:54;8.10;99.90
7117;DHT22;3600;48.568;7.870;2024-02-15T06:40:40;8.10;99.90
7117;DHT22;3600;48.568;7.870;2024-02-15T06:43:07;8.10;99.90
7117;DHT22;3600;48.568;7.870;2024-02-15T06:45:34;8.10;99.90
7117;DHT22;3600;48.568;7.870;2024-02-15T06:48:04;8.10;99.90
7117;DHT22;3600;48.568;7.870;2024-02-15T06:50:31;8.10;99.90
7117;DHT22;3600;48.568;7.870;2024-02-15T06:52:58;8.00;99.90
7117;DHT22;3600;48.568;7.870;2024-02-15T06:55:25;8.10;99.90
7117;DHT22;3600;48.568;7.870;2024-02-15T06:57:52;8.10;99.90
7117;DHT22;3600;48.568;7.870;2024-02-15T07:00:18;8.10;99.90
7117;DHT22;3600;48.568;7.870;2024-02-15T07:02:49;8.10;99.90
7117;DHT22;3600;48.568;7.870;2024-02-15T07:05:16;8.10;99.90
7117;DHT22;3600;48.568;7.870;2024-02-15T07:07:46;8.10;99.90
7117;DHT22;3600;48.568;7.870;2024-02-15T07:10:13;8.10;99.90
7117;DHT22;3600;48.568;7.870;2024-02-15T07:12:43;8.10;99.90
7117;DHT22;3600;48.568;7.870;2024-02-15T07:15:10;8.10;99.90
7117;DHT22;3600;48.568;7.870;2024-02-15T07:17:41;8.10;99.90
7117;DHT22;3600;48.568;7.870;2024-02-15T07:20:14;8.10;99.90
7117;DHT22;3600;48.568;7.870;2024-02-15T07:22:44;8.20;99.90
7117;DHT22;3600;48.568;7.870;2024-02-15T07:25:12;8.20;99.90
7117;DHT22;3600;48.568;7.870;2024-02-15T07:27:39;8.20;99.90
7117;DHT22;3600;48.568;7.870;2024-02-15T07:30:08;8.20;99.90
7117;DHT22;3600;48.568;7.870;2024-02-15T07:32:39;8.30;99.90
7117;DHT22;3600;48.568;7.870;2024-02-15T07:38:50;8.30;99.90
7117;DHT22;3600;48.568;7.870;2024-02-15T07:41:19;8.40;99.90
7117;DHT22;3600;48.568;7.870;2024-02-15T07:43:49;8.40;99.90
7117;DHT22;3600;48.568;7.870;2024-02-15T07:46:17;8.40;99.90
7117;DHT22;3600;48.568;7.870;2024-02-15T07:48:46;8.50;99.90
7117;DHT22;3600;48.568;7.870;2024-02-15T07:51:17;8.50;99.90
7117;DHT22;3600;48.568;7.870;2024-02-15T07:53:48;8.50;99.90
7117;DHT22;3600;48.568;7.870;2024-02-15T07:56:17;8.50;99.90
7117;DHT22;3600;48.568;7.870;2024-02-15T07:58:47;8.50;99.90
7117;DHT22;3600;48.568;7.870;2024-02-15T08:01:20;8.50;99.90
7117;DHT22;3600;48.568;7.870;2024-02-15T08:03:54;8.60;99.90
7117;DHT22;3600;48.568;7.870;2024-02-15T08:06:22;8.60;99.90
7117;DHT22;3600;48.568;7.870;2024-02-15T08:08:55;8.60;99.90
7117;DHT22;3600;48.568;7.870;2024-02-15T08:11:21;8.60;99.90
7117;DHT22;3600;48.568;7.870;2024-02-15T08:13:51;8.60;99.90
7117;DHT22;3600;48.568;7.870;2024-02-15T08:16:22;8.70;99.90
7117;DHT22;3600;48.568;7.870;2024-02-15T08:26:28;8.80;99.90
7117;DHT22;3600;48.568;7.870;2024-02-15T08:28:56;8.80;99.90
7117;DHT22;3600;48.568;7.870;2024-02-15T08:31:23;8.90;99.90
7117;DHT22;3600;48.568;7.870;2024-02-15T08:33:50;8.90;99.90
7117;DHT22;3600;48.568;7.870;2024-02-15T08:36:21;9.00;99.90
7117;DHT22;3600;48.568;7.870;2024-02-15T08:38:54;9.00;99.90
7117;DHT22;3600;48.568;7.870;2024-02-15T08:41:26;9.10;99.90
7117;DHT22;3600;48.568;7.870;2024-02-15T08:43:55;9.20;99.90
7117;DHT22;3600;48.568;7.870;2024-02-15T08:46:27;9.20;99.90
7117;DHT22;3600;48.568;7.870;2024-02-15T08:48:54;9.30;99.90
7117;DHT22;3600;48.568;7.870;2024-02-15T08:51:21;9.40;99.90
7117;DHT22;3600;48.568;7.870;2024-02-15T08:53:51;9.40;99.90
7117;DHT22;3600;48.568;7.870;2024-02-15T08:56:18;9.50;99.90
7117;DHT22;3600;48.568;7.870;2024-02-15T08:58:45;9.60;99.90
7117;DHT22;3600;48.568;7.870;2024-02-15T09:01:14;9.60;99.90
7117;DHT22;3600;48.568;7.870;2024-02-15T09:03:41;9.60;99.90
7117;DHT22;3600;48.568;7.870;2024-02-15T09:06:11;9.70;99.90
7117;DHT22;3600;48.568;7.870;2024-02-15T09:08:38;9.70;99.90
7117;DHT22;3600;48.568;7.870;2024-02-15T09:11:11;9.80;99.90
7117;DHT22;3600;48.568;7.870;2024-02-15T09:13:40;9.80;99.90
7117;DHT22;3600;48.568;7.870;2024-02-15T09:16:07;9.90;99.90
7117;DHT22;3600;48.568;7.870;2024-02-15T09:18:34;10.00;99.90
7117;DHT22;3600;48.568;7.870;2024-02-15T09:21:01;10.00;99.90
7117;DHT22;3600;48.568;7.870;2024-02-15T09:23:32;10.10;99.90
7117;DHT22;3600;48.568;7.870;2024-02-15T09:26:02;10.10;99.90
7117;DHT22;3600;48.568;7.870;2024-02-15T09:28:31;10.20;99.90
7117;DHT22;3600;48.568;7.870;2024-02-15T09:31:03;10.20;99.90
7117;DHT22;3600;48.568;7.870;2024-02-15T09:34:11;10.30;99.90
7117;DHT22;3600;48.568;7.870;2024-02-15T09:36:54;10.30;99.90
7117;DHT22;3600;48.568;7.870;2024-02-15T09:42:34;10.40;99.90
7117;DHT22;3600;48.568;7.870;2024-02-15T09:45:02;10.50;99.90
7117;DHT22;3600;48.568;7.870;2024-02-15T09:47:35;10.50;99.90
7117;DHT22;3600;48.568;7.870;2024-02-15T09:50:13;10.50;99.90
7117;DHT22;3600;48.568;7.870;2024-02-15T09:55:14;10.60;99.90
7117;DHT22;3600;48.568;7.870;2024-02-15T09:57:44;10.60;99.90
7117;DHT22;3600;48.568;7.870;2024-02-15T10:00:13;10.60;99.90
7117;DHT22;3600;48.568;7.870;2024-02-15T10:02:42;10.70;99.90
7117;DHT22;3600;48.568;7.870;2024-02-15T10:05:12;10.70;99.90
7117;DHT22;3600;48.568;7.870;2024-02-15T10:07:44;10.70;99.90
7117;DHT22;3600;48.568;7.870;2024-02-15T10:12:51;10.80;99.90
7117;DHT22;3600;48.568;7.870;2024-02-15T10:18:01;11.00;99.90
7117;DHT22;3600;48.568;7.870;2024-02-15T10:20:29;11.00;99.90
7117;DHT22;3600;48.568;7.870;2024-02-15T10:23:12;11.00;99.90
7117;DHT22;3600;48.568;7.870;2024-02-15T10:25:40;11.10;99.90
7117;DHT22;3600;48.568;7.870;2024-02-15T10:28:09;11.20;99.90
7117;DHT22;3600;48.568;7.870;2024-02-15T10:30:38;11.20;99.90
7117;DHT22;3600;48.568;7.870;2024-02-15T10:33:41;11.30;99.90
7117;DHT22;3600;48.568;7.870;2024-02-15T10:36:12;11.30;99.90
7117;DHT22;3600;48.568;7.870;2024-02-15T10:42:36;11.50;99.90
7117;DHT22;3600;48.568;7.870;2024-02-15T10:45:17;11.50;99.90
7117;DHT22;3600;48.568;7.870;2024-02-15T11:12:05;12.10;99.90
7117;DHT22;3600;48.568;7.870;2024-02-15T11:22:29;12.30;99.90
7117;DHT22;3600;48.568;7.870;2024-02-15T11:32:54;12.60;99.90
7117;DHT22;3600;48.568;7.870;2024-02-15T11:39:39;12.70;99.90
7117;DHT22;3600;48.568;7.870;2024-02-15T11:42:28;12.70;99.90
7117;DHT22;3600;48.568;7.870;2024-02-15T11:52:50;12.90;99.90
7117;DHT22;3600;48.568;7.870;2024-02-15T11:55:21;12.90;99.90
7117;DHT22;3600;48.568;7.870;2024-02-15T11:57:59;13.00;99.90
7117;DHT22;3600;48.568;7.870;2024-02-15T12:03:56;13.10;99.90
7117;DHT22;3600;48.568;7.870;2024-02-15T12:06:47;13.20;99.90
7117;DHT22;3600;48.568;7.870;2024-02-15T12:09:48;13.20;99.90
7117;DHT22;3600;48.568;7.870;2024-02-15T12:12:54;13.20;99.90
7117;DHT22;3600;48.568;7.870;2024-02-15T12:15:58;13.30;99.90
7117;DHT22;3600;48.568;7.870;2024-02-15T12:18:47;13.30;99.90
7117;DHT22;3600;48.568;7.870;2024-02-15T12:21:30;13.40;99.90
7117;DHT22;3600;48.568;7.870;2024-02-15T12:24:00;13.30;99.90
7117;DHT22;3600;48.568;7.870;2024-02-15T12:26:29;13.40;99.90
7117;DHT22;3600;48.568;7.870;2024-02-15T12:29:41;13.50;99.90
7117;DHT22;3600;48.568;7.870;2024-02-15T12:32:38;13.50;99.90
7117;DHT22;3600;48.568;7.870;2024-02-15T12:35:12;13.50;99.90
7117;DHT22;3600;48.568;7.870;2024-02-15T12:37:47;13.60;99.90
7117;DHT22;3600;48.568;7.870;2024-02-15T12:40:16;13.60;99.90
7117;DHT22;3600;48.568;7.870;2024-02-15T12:42:47;13.60;99.90
7117;DHT22;3600;48.568;7.870;2024-02-15T12:45:16;13.70;99.90
7117;DHT22;3600;48.568;7.870;2024-02-15T12:48:06;13.70;99.90
7117;DHT22;3600;48.568;7.870;2024-02-15T12:55:19;13.90;99.90
7117;DHT22;3600;48.568;7.870;2024-02-15T12:57:54;13.90;99.90
7117;DHT22;3600;48.568;7.870;2024-02-15T13:00:24;13.90;99.90
7117;DHT22;3600;48.568;7.870;2024-02-15T13:03:04;14.00;99.90
7117;DHT22;3600;48.568;7.870;2024-02-15T13:05:31;14.10;99.90
7117;DHT22;3600;48.568;7.870;2024-02-15T13:07:59;14.10;99.90
7117;DHT22;3600;48.568;7.870;2024-02-15T13:10:31;14.10;99.90
7117;DHT22;3600;48.568;7.870;2024-02-15T13:12:58;14.20;99.90
7117;DHT22;3600;48.568;7.870;2024-02-15T13:15:25;14.20;99.90
7117;DHT22;3600;48.568;7.870;2024-02-15T13:18:00;14.20;99.90
7117;DHT22;3600;48.568;7.870;2024-02-15T13:20:31;14.30;99.90
7117;DHT22;3600;48.568;7.870;2024-02-15T13:23:05;14.20;99.90
7117;DHT22;3600;48.568;7.870;2024-02-15T13:25:37;14.30;99.90
7117;DHT22;3600;48.568;7.870;2024-02-15T13:28:07;14.30;99.90
7117;DHT22;3600;48.568;7.870;2024-02-15T13:30:37;14.40;99.90
7117;DHT22;3600;48.568;7.870;2024-02-15T13:33:04;14.40;99.90
7117;DHT22;3600;48.568;7.870;2024-02-15T13:35:32;14.30;99.90
7117;DHT22;3600;48.568;7.870;2024-02-15T13:37:59;14.30;99.90
7117;DHT22;3600;48.568;7.870;2024-02-15T13:40:27;14.30;99.90
7117;DHT22;3600;48.568;7.870;2024-02-15T13:42:57;14.40;99.90
7117;DHT22;3600;48.568;7.870;2024-02-15T13:45:54;14.50;99.90
7117;DHT22;3600;48.568;7.870;2024-02-15T13:48:21;14.50;99.90
7117;DHT22;3600;48.568;7.870;2024-02-15T13:50:53;14.50;99.90
7117;DHT22;3600;48.568;7.870;2024-02-15T13:53:21;14.40;99.90
7117;DHT22;3600;48.568;7.870;2024-02-15T13:55:51;14.40;99.90
7117;DHT22;3600;48.568;7.870;2024-02-15T13:58:21;14.40;99.90
7117;DHT22;3600;48.568;7.870;2024-02-15T14:00:48;14.40;99.90
7117;DHT22;3600;48.568;7.870;2024-02-15T14:03:15;14.40;99.90
7117;DHT22;3600;48.568;7.870;2024-02-15T14:05:42;14.40;99.90
7117;DHT22;3600;48.568;7.870;2024-02-15T14:08:12;14.30;99.90
7117;DHT22;3600;48.568;7.870;2024-02-15T14:10:39;14.30;99.90
7117;DHT22;3600;48.568;7.870;2024-02-15T14:13:06;14.40;99.90
7117;DHT22;3600;48.568;7.870;2024-02-15T14:15:34;14.40;99.90
7117;DHT22;3600;48.568;7.870;2024-02-15T14:18:10;14.50;99.90
7117;DHT22;3600;48.568;7.870;2024-02-15T14:20:38;14.40;99.90
7117;DHT22;3600;48.568;7.870;2024-02-15T14:23:05;14.40;99.90
7117;DHT22;3600;48.568;7.870;2024-02-15T14:25:33;14.50;99.90
7117;DHT22;3600;48.568;7.870;2024-02-15T14:28:00;14.60;99.90
7117;DHT22;3600;48.568;7.870;2024-02-15T14:30:27;14.60;99.90
7117;DHT22;3600;48.568;7.870;2024-02-15T14:33:12;14.50;99.90
7117;DHT22;3600;48.568;7.870;2024-02-15T14:35:45;14.50;99.90
7117;DHT22;3600;48.568;7.870;2024-02-15T14:38:13;14.50;99.90
7117;DHT22;3600;48.568;7.870;2024-02-15T14:40:45;14.50;99.90
7117;DHT22;3600;48.568;7.870;2024-02-15T14:43:17;14.40;99.90
7117;DHT22;3600;48.568;7.870;2024-02-15T14:45:45;14.30;99.90
7117;DHT22;3600;48.568;7.870;2024-02-15T14:48:15;14.30;99.90
7117;DHT22;3600;48.568;7.870;2024-02-15T14:50:44;14.30;99.90
7117;DHT22;3600;48.568;7.870;2024-02-15T14:53:13;14.30;99.90
7117;DHT22;3600;48.568;7.870;2024-02-15T14:55:42;14.40;99.90
7117;DHT22;3600;48.568;7.870;2024-02-15T14:58:16;14.30;99.90
7117;DHT22;3600;48.568;7.870;2024-02-15T15:00:45;14.20;99.90
7117;DHT22;3600;48.568;7.870;2024-02-15T15:03:14;14.30;99.90
7117;DHT22;3600;48.568;7.870;2024-02-15T15:05:42;14.20;99.90
7117;DHT22;3600;48.568;7.870;2024-02-15T15:08:28;14.30;99.90
7117;DHT22;3600;48.568;7.870;2024-02-15T15:11:14;14.20;99.90
7117;DHT22;3600;48.568;7.870;2024-02-15T15:14:00;14.20;99.90
7117;DHT22;3600;48.568;7.870;2024-02-15T15:16:26;14.20;99.90
7117;DHT22;3600;48.568;7.870;2024-02-15T15:18:55;14.10;99.90
7117;DHT22;3600;48.568;7.870;2024-02-15T15:21:23;14.10;99.90
7117;DHT22;3600;48.568;7.870;2024-02-15T15:23:51;14.00;99.90
7117;DHT22;3600;48.568;7.870;2024-02-15T15:26:22;14.00;99.90
7117;DHT22;3600;48.568;7.870;2024-02-15T15:28:49;14.20;99.90
7117;DHT22;3600;48.568;7.870;2024-02-15T15:31:17;14.20;99.90
7117;DHT22;3600;48.568;7.870;2024-02-15T15:33:46;14.20;99.90
7117;DHT22;3600;48.568;7.870;2024-02-15T15:36:16;14.10;99.90
7117;DHT22;3600;48.568;7.870;2024-02-15T15:38:44;14.00;99.90
7117;DHT22;3600;48.568;7.870;2024-02-15T15:41:12;14.10;99.90
7117;DHT22;3600;48.568;7.870;2024-02-15T15:43:39;14.10;99.90
7117;DHT22;3600;48.568;7.870;2024-02-15T15:46:06;14.10;99.90
7117;DHT22;3600;48.568;7.870;2024-02-15T15:48:38;14.00;99.90
7117;DHT22;3600;48.568;7.870;2024-02-15T15:51:06;14.00;99.90
7117;DHT22;3600;48.568;7.870;2024-02-15T15:53:36;14.00;99.90
7117;DHT22;3600;48.568;7.870;2024-02-15T15:56:06;13.90;99.90
7117;DHT22;3600;48.568;7.870;2024-02-15T15:58:34;13.90;99.90
7117;DHT22;3600;48.568;7.870;2024-02-15T16:01:01;13.80;99.90
7117;DHT22;3600;48.568;7.870;2024-02-15T16:03:28;13.70;99.90
7117;DHT22;3600;48.568;7.870;2024-02-15T16:05:55;13.70;99.90
7117;DHT22;3600;48.568;7.870;2024-02-15T16:08:22;13.60;99.90
7117;DHT22;3600;48.568;7.870;2024-02-15T16:10:49;13.60;99.90
7117;DHT22;3600;48.568;7.870;2024-02-15T16:13:16;13.60;99.90
7117;DHT22;3600;48.568;7.870;2024-02-15T16:15:44;13.60;99.90
7117;DHT22;3600;48.568;7.870;2024-02-15T16:18:13;13.50;99.90
7117;DHT22;3600;48.568;7.870;2024-02-15T16:20:41;13.40;99.90
7117;DHT22;3600;48.568;7.870;2024-02-15T16:23:09;13.40;99.90
7117;DHT22;3600;48.568;7.870;2024-02-15T16:25:36;13.40;99.90
7117;DHT22;3600;48.568;7.870;2024-02-15T16:28:03;13.30;99.90
7117;DHT22;3600;48.568;7.870;2024-02-15T16:30:33;13.40;99.90
7117;DHT22;3600;48.568;7.870;2024-02-15T16:33:01;13.30;99.90
7117;DHT22;3600;48.568;7.870;2024-02-15T16:35:28;13.30;99.90
7117;DHT22;3600;48.568;7.870;2024-02-15T16:37:55;13.30;99.90
7117;DHT22;3600;48.568;7.870;2024-02-15T16:40:22;13.30;99.90
7117;DHT22;3600;48.568;7.870;2024-02-15T16:42:50;13.20;99.90
7117;DHT22;3600;48.568;7.870;2024-02-15T16:45:20;13.20;99.90
7117;DHT22;3600;48.568;7.870;2024-02-15T16:47:50;13.20;99.90
7117;DHT22;3600;48.568;7.870;2024-02-15T16:50:23;13.10;99.90
7117;DHT22;3600;48.568;7.870;2024-02-15T16:52:51;13.10;99.90
7117;DHT22;3600;48.568;7.870;2024-02-15T16:55:19;13.00;99.90
7117;DHT22;3600;48.568;7.870;2024-02-15T16:57:58;13.00;99.90
7117;DHT22;3600;48.568;7.870;2024-02-15T17:00:35;13.00;99.90
7117;DHT22;3600;48.568;7.870;2024-02-15T17:03:02;12.90;99.90
7117;DHT22;3600;48.568;7.870;2024-02-15T17:05:32;12.90;99.90
7117;DHT22;3600;48.568;7.870;2024-02-15T17:08:03;12.90;99.90
7117;DHT22;3600;48.568;7.870;2024-02-15T17:10:32;12.80;99.90
7117;DHT22;3600;48.568;7.870;2024-02-15T17:13:00;12.90;99.90
7117;DHT22;3600;48.568;7.870;2024-02-15T17:15:28;12.90;99.90
7117;DHT22;3600;48.568;7.870;2024-02-15T17:17:56;12.90;99.90
7117;DHT22;3600;48.568;7.870;2024-02-15T17:20:23;12.80;99.90
7117;DHT22;3600;48.568;7.870;2024-02-15T17:22:51;12.80;99.90
7117;DHT22;3600;48.568;7.870;2024-02-15T17:25:19;12.80;99.90
7117;DHT22;3600;48.568;7.870;2024-02-15T17:27:52;12.80;99.90
7117;DHT22;3600;48.568;7.870;2024-02-15T17:30:19;12.70;99.90
7117;DHT22;3600;48.568;7.870;2024-02-15T17:32:46;12.60;99.90
7117;DHT22;3600;48.568;7.870;2024-02-15T17:35:13;12.60;99.90
7117;DHT22;3600;48.568;7.870;2024-02-15T17:37:43;12.60;99.90
7117;DHT22;3600;48.568;7.870;2024-02-15T17:40:10;12.60;99.90
7117;DHT22;3600;48.568;7.870;2024-02-15T17:42:41;12.50;99.90
7117;DHT22;3600;48.568;7.870;2024-02-15T17:45:10;12.40;99.90
7117;DHT22;3600;48.568;7.870;2024-02-15T17:47:38;12.40;99.90
7117;DHT22;3600;48.568;7.870;2024-02-15T17:50:10;12.40;99.90
7117;DHT22;3600;48.568;7.870;2024-02-15T17:52:38;12.40;99.90
7117;DHT22;3600;48.568;7.870;2024-02-15T17:55:05;12.30;99.90
7117;DHT22;3600;48.568;7.870;2024-02-15T17:57:36;12.30;99.90
7117;DHT22;3600;48.568;7.870;2024-02-15T18:00:08;12.20;99.90
7117;DHT22;3600;48.568;7.870;2024-02-15T18:02:46;12.30;99.90